sensor_id;sensor_type;location;lat;lon;timestamp;P1;durP1;ratioP1;P2;durP2;ratioP2
22425;SDS011;11380;50.822;15.790;2023-01-19T00:04:28;46.63;;;43.23;;
22425;SDS011;11380;50.822;15.790;2023-01-19T00:09:36;46.80;;;43.40;;
22425;SDS011;11380;50.822;15.790;2023-01-19T00:14:44;47.00;;;43.50;;
22425;SDS011;11380;50.822;15.790;2023-01-19T00:19:54;45.23;;;42.10;;
22425;SDS011;11380;50.822;15.790;2023-01-19T00:25:02;45.47;;;42.17;;
22425;SDS011;11380;50.822;15.790;2023-01-19T00:30:10;45.80;;;42.60;;
22425;SDS011;11380;50.822;15.790;2023-01-19T00:35:17;44.67;;;41.67;;
22425;SDS011;11380;50.822;15.790;2023-01-19T00:40:25;46.33;;;43.00;;
22425;SDS011;11380;50.822;15.790;2023-01-19T00:45:33;45.00;;;41.90;;
22425;SDS011;11380;50.822;15.790;2023-01-19T00:50:41;44.47;;;41.43;;
22425;SDS011;11380;50.822;15.790;2023-01-19T00:55:49;45.00;;;41.77;;
22425;SDS011;11380;50.822;15.790;2023-01-19T01:00:56;44.83;;;41.77;;
22425;SDS011;11380;50.822;15.790;2023-01-19T01:06:06;44.50;;;41.50;;
22425;SDS011;11380;50.822;15.790;2023-01-19T01:16:20;43.73;;;40.92;;
22425;SDS011;11380;50.822;15.790;2023-01-19T01:21:29;43.30;;;40.53;;
22425;SDS011;11380;50.822;15.790;2023-01-19T01:26:37;43.33;;;40.53;;
22425;SDS011;11380;50.822;15.790;2023-01-19T01:31:44;42.43;;;39.73;;
22425;SDS011;11380;50.822;15.790;2023-01-19T01:36:52;42.97;;;40.27;;
22425;SDS011;11380;50.822;15.790;2023-01-19T01:41:59;43.30;;;40.50;;
22425;SDS011;11380;50.822;15.790;2023-01-19T01:47:06;43.23;;;40.53;;
22425;SDS011;11380;50.822;15.790;2023-01-19T01:52:14;43.10;;;40.33;;
22425;SDS011;11380;50.822;15.790;2023-01-19T01:57:22;42.60;;;39.80;;
22425;SDS011;11380;50.822;15.790;2023-01-19T02:02:32;42.47;;;39.77;;
22425;SDS011;11380;50.822;15.790;2023-01-19T02:08:03;41.87;;;39.27;;
22425;SDS011;11380;50.822;15.790;2023-01-19T02:13:42;42.63;;;39.93;;
22425;SDS011;11380;50.822;15.790;2023-01-19T02:18:51;42.87;;;40.07;;
22425;SDS011;11380;50.822;15.790;2023-01-19T02:23:59;42.97;;;40.17;;
22425;SDS011;11380;50.822;15.790;2023-01-19T02:29:06;43.40;;;40.60;;
22425;SDS011;11380;50.822;15.790;2023-01-19T02:34:18;42.73;;;39.93;;
22425;SDS011;11380;50.822;15.790;2023-01-19T02:39:34;42.53;;;39.73;;
22425;SDS011;11380;50.822;15.790;2023-01-19T02:44:55;42.48;;;39.78;;
22425;SDS011;11380;50.822;15.790;2023-01-19T02:50:03;43.83;;;40.83;;
22425;SDS011;11380;50.822;15.790;2023-01-19T02:55:18;42.67;;;39.97;;
22425;SDS011;11380;50.822;15.790;2023-01-19T03:11:26;44.10;;;41.10;;
22425;SDS011;11380;50.822;15.790;2023-01-19T03:16:39;45.03;;;41.87;;
22425;SDS011;11380;50.822;15.790;2023-01-19T03:21:52;44.65;;;41.58;;
22425;SDS011;11380;50.822;15.790;2023-01-19T03:27:16;42.53;;;39.83;;
22425;SDS011;11380;50.822;15.790;2023-01-19T03:32:31;43.00;;;40.30;;
22425;SDS011;11380;50.822;15.790;2023-01-19T03:37:44;42.93;;;40.20;;
22425;SDS011;11380;50.822;15.790;2023-01-19T03:42:54;42.57;;;39.87;;
22425;SDS011;11380;50.822;15.790;2023-01-19T03:48:02;41.63;;;39.03;;
22425;SDS011;11380;50.822;15.790;2023-01-19T03:53:11;42.20;;;39.40;;
22425;SDS011;11380;50.822;15.790;2023-01-19T03:58:21;42.77;;;39.87;;
22425;SDS011;11380;50.822;15.790;2023-01-19T04:03:28;42.95;;;40.25;;
22425;SDS011;11380;50.822;15.790;2023-01-19T04:08:37;41.50;;;38.87;;
22425;SDS011;11380;50.822;15.790;2023-01-19T04:13:45;43.47;;;40.37;;
22425;SDS011;11380;50.822;15.790;2023-01-19T04:18:51;43.70;;;40.70;;
22425;SDS011;11380;50.822;15.790;2023-01-19T04:23:59;42.77;;;39.87;;
22425;SDS011;11380;50.822;15.790;2023-01-19T04:29:06;42.78;;;40.00;;
22425;SDS011;11380;50.822;15.790;2023-01-19T04:34:13;43.10;;;40.30;;
22425;SDS011;11380;50.822;15.790;2023-01-19T04:39:21;42.43;;;39.73;;
22425;SDS011;11380;50.822;15.790;2023-01-19T04:44:29;42.90;;;40.10;;
22425;SDS011;11380;50.822;15.790;2023-01-19T04:49:36;42.23;;;39.47;;
22425;SDS011;11380;50.822;15.790;2023-01-19T04:54:43;42.73;;;40.03;;
22425;SDS011;11380;50.822;15.790;2023-01-19T04:59:50;42.40;;;39.70;;
22425;SDS011;11380;50.822;15.790;2023-01-19T05:04:57;42.77;;;40.03;;
22425;SDS011;11380;50.822;15.790;2023-01-19T05:10:05;42.60;;;39.73;;
22425;SDS011;11380;50.822;15.790;2023-01-19T05:15:14;43.52;;;40.63;;
22425;SDS011;11380;50.822;15.790;2023-01-19T05:20:21;42.60;;;39.90;;
22425;SDS011;11380;50.822;15.790;2023-01-19T05:25:29;42.97;;;40.20;;
22425;SDS011;11380;50.822;15.790;2023-01-19T05:30:36;42.17;;;39.33;;
22425;SDS011;11380;50.822;15.790;2023-01-19T05:35:44;42.33;;;39.63;;
22425;SDS011;11380;50.822;15.790;2023-01-19T05:40:57;42.97;;;39.93;;
22425;SDS011;11380;50.822;15.790;2023-01-19T05:46:05;42.20;;;39.40;;
22425;SDS011;11380;50.822;15.790;2023-01-19T05:51:13;42.10;;;39.30;;
22425;SDS011;11380;50.822;15.790;2023-01-19T05:56:20;44.90;;;41.90;;
22425;SDS011;11380;50.822;15.790;2023-01-19T06:01:30;40.83;;;38.30;;
22425;SDS011;11380;50.822;15.790;2023-01-19T06:06:41;40.50;;;38.00;;
22425;SDS011;11380;50.822;15.790;2023-01-19T06:11:48;40.53;;;37.93;;
22425;SDS011;11380;50.822;15.790;2023-01-19T06:16:57;40.70;;;38.10;;
22425;SDS011;11380;50.822;15.790;2023-01-19T06:27:11;42.23;;;39.40;;
22425;SDS011;11380;50.822;15.790;2023-01-19T06:32:20;41.90;;;39.08;;
22425;SDS011;11380;50.822;15.790;2023-01-19T06:37:28;41.37;;;38.55;;
22425;SDS011;11380;50.822;15.790;2023-01-19T06:42:36;42.60;;;39.70;;
22425;SDS011;11380;50.822;15.790;2023-01-19T06:47:46;44.30;;;40.90;;
22425;SDS011;11380;50.822;15.790;2023-01-19T06:52:53;45.20;;;41.57;;
22425;SDS011;11380;50.822;15.790;2023-01-19T06:58:02;40.77;;;38.07;;
22425;SDS011;11380;50.822;15.790;2023-01-19T07:03:15;40.57;;;38.00;;
22425;SDS011;11380;50.822;15.790;2023-01-19T07:08:24;44.73;;;41.20;;
22425;SDS011;11380;50.822;15.790;2023-01-19T07:13:31;42.73;;;39.63;;
22425;SDS011;11380;50.822;15.790;2023-01-19T07:18:40;41.60;;;38.40;;
22425;SDS011;11380;50.822;15.790;2023-01-19T07:23:50;40.80;;;38.13;;
22425;SDS011;11380;50.822;15.790;2023-01-19T07:28:57;40.80;;;38.10;;
22425;SDS011;11380;50.822;15.790;2023-01-19T07:34:04;38.83;;;36.30;;
22425;SDS011;11380;50.822;15.790;2023-01-19T07:39:13;40.50;;;37.43;;
22425;SDS011;11380;50.822;15.790;2023-01-19T07:44:22;42.00;;;38.85;;
22425;SDS011;11380;50.822;15.790;2023-01-19T07:49:29;41.53;;;38.53;;
22425;SDS011;11380;50.822;15.790;2023-01-19T07:54:37;48.03;;;43.47;;
22425;SDS011;11380;50.822;15.790;2023-01-19T07:59:45;49.30;;;44.70;;
22425;SDS011;11380;50.822;15.790;2023-01-19T08:04:55;48.23;;;43.73;;
22425;SDS011;11380;50.822;15.790;2023-01-19T08:10:02;50.30;;;45.47;;
22425;SDS011;11380;50.822;15.790;2023-01-19T08:15:10;46.40;;;42.50;;
22425;SDS011;11380;50.822;15.790;2023-01-19T08:20:17;52.03;;;46.68;;
22425;SDS011;11380;50.822;15.790;2023-01-19T08:25:31;45.23;;;41.70;;
22425;SDS011;11380;50.822;15.790;2023-01-19T08:30:40;55.03;;;49.80;;
22425;SDS011;11380;50.822;15.790;2023-01-19T08:35:49;52.10;;;46.73;;
22425;SDS011;11380;50.822;15.790;2023-01-19T08:41:01;55.27;;;49.90;;
22425;SDS011;11380;50.822;15.790;2023-01-19T08:46:09;48.78;;;44.77;;
22425;SDS011;11380;50.822;15.790;2023-01-19T08:51:19;47.70;;;43.93;;
22425;SDS011;11380;50.822;15.790;2023-01-19T08:56:27;49.03;;;44.70;;
22425;SDS011;11380;50.822;15.790;2023-01-19T09:01:34;49.43;;;45.13;;
22425;SDS011;11380;50.822;15.790;2023-01-19T09:06:43;49.80;;;45.57;;
22425;SDS011;11380;50.822;15.790;2023-01-19T09:11:52;49.70;;;45.37;;
22425;SDS011;11380;50.822;15.790;2023-01-19T09:17:00;51.37;;;46.70;;
22425;SDS011;11380;50.822;15.790;2023-01-19T09:22:08;48.50;;;44.50;;
22425;SDS011;11380;50.822;15.790;2023-01-19T09:27:15;47.60;;;43.97;;
22425;SDS011;11380;50.822;15.790;2023-01-19T09:32:22;49.58;;;45.15;;
22425;SDS011;11380;50.822;15.790;2023-01-19T09:37:30;48.87;;;45.03;;
22425;SDS011;11380;50.822;15.790;2023-01-19T09:42:55;48.10;;;44.20;;
22425;SDS011;11380;50.822;15.790;2023-01-19T09:53:49;46.67;;;43.17;;
22425;SDS011;11380;50.822;15.790;2023-01-19T10:09:53;45.63;;;42.33;;
22425;SDS011;11380;50.822;15.790;2023-01-19T10:15:30;46.07;;;42.67;;
22425;SDS011;11380;50.822;15.790;2023-01-19T10:26:33;48.80;;;44.80;;
22425;SDS011;11380;50.822;15.790;2023-01-19T10:31:47;49.80;;;45.63;;
22425;SDS011;11380;50.822;15.790;2023-01-19T10:42:48;48.37;;;44.57;;
22425;SDS011;11380;50.822;15.790;2023-01-19T10:48:04;49.50;;;45.47;;
22425;SDS011;11380;50.822;15.790;2023-01-19T10:53:16;48.83;;;45.07;;
22425;SDS011;11380;50.822;15.790;2023-01-19T10:58:28;49.00;;;45.00;;
22425;SDS011;11380;50.822;15.790;2023-01-19T11:03:36;47.53;;;44.03;;
22425;SDS011;11380;50.822;15.790;2023-01-19T11:08:44;46.60;;;43.20;;
22425;SDS011;11380;50.822;15.790;2023-01-19T11:14:06;46.17;;;42.77;;
22425;SDS011;11380;50.822;15.790;2023-01-19T11:19:23;47.67;;;44.13;;
22425;SDS011;11380;50.822;15.790;2023-01-19T11:24:43;47.53;;;43.93;;
22425;SDS011;11380;50.822;15.790;2023-01-19T11:30:02;46.87;;;43.10;;
22425;SDS011;11380;50.822;15.790;2023-01-19T11:35:39;47.50;;;43.77;;
22425;SDS011;11380;50.822;15.790;2023-01-19T11:46:37;46.27;;;42.97;;
22425;SDS011;11380;50.822;15.790;2023-01-19T11:51:55;46.30;;;42.90;;
22425;SDS011;11380;50.822;15.790;2023-01-19T11:57:19;46.28;;;42.98;;
22425;SDS011;11380;50.822;15.790;2023-01-19T12:02:29;45.80;;;42.57;;
22425;SDS011;11380;50.822;15.790;2023-01-19T12:07:43;45.67;;;42.37;;
22425;SDS011;11380;50.822;15.790;2023-01-19T12:12:53;48.57;;;44.40;;
22425;SDS011;11380;50.822;15.790;2023-01-19T12:18:02;45.83;;;42.63;;
22425;SDS011;11380;50.822;15.790;2023-01-19T12:28:51;51.48;;;46.95;;
22425;SDS011;11380;50.822;15.790;2023-01-19T12:34:26;45.52;;;42.23;;
22425;SDS011;11380;50.822;15.790;2023-01-19T12:39:39;45.13;;;41.97;;
22425;SDS011;11380;50.822;15.790;2023-01-19T12:45:03;45.13;;;41.73;;
22425;SDS011;11380;50.822;15.790;2023-01-19T12:50:12;45.30;;;42.10;;
22425;SDS011;11380;50.822;15.790;2023-01-19T12:55:34;44.90;;;41.80;;
22425;SDS011;11380;50.822;15.790;2023-01-19T13:00:44;46.00;;;42.50;;
22425;SDS011;11380;50.822;15.790;2023-01-19T13:05:54;44.77;;;41.67;;
22425;SDS011;11380;50.822;15.790;2023-01-19T13:21:38;44.43;;;41.43;;
22425;SDS011;11380;50.822;15.790;2023-01-19T13:32:01;45.30;;;42.20;;
22425;SDS011;11380;50.822;15.790;2023-01-19T13:37:23;45.30;;;42.00;;
22425;SDS011;11380;50.822;15.790;2023-01-19T13:42:42;45.07;;;41.97;;
22425;SDS011;11380;50.822;15.790;2023-01-19T13:47:51;45.77;;;42.50;;
22425;SDS011;11380;50.822;15.790;2023-01-19T13:53:01;45.33;;;41.83;;
22425;SDS011;11380;50.822;15.790;2023-01-19T13:58:20;46.33;;;42.83;;
22425;SDS011;11380;50.822;15.790;2023-01-19T14:03:30;46.23;;;42.83;;
22425;SDS011;11380;50.822;15.790;2023-01-19T14:08:39;44.87;;;41.77;;
22425;SDS011;11380;50.822;15.790;2023-01-19T14:13:46;45.47;;;42.17;;
22425;SDS011;11380;50.822;15.790;2023-01-19T14:19:00;45.13;;;42.03;;
22425;SDS011;11380;50.822;15.790;2023-01-19T14:29:25;45.88;;;42.38;;
22425;SDS011;11380;50.822;15.790;2023-01-19T14:39:55;47.23;;;43.30;;
22425;SDS011;11380;50.822;15.790;2023-01-19T14:45:21;46.60;;;42.98;;
22425;SDS011;11380;50.822;15.790;2023-01-19T14:50:44;48.77;;;44.33;;
22425;SDS011;11380;50.822;15.790;2023-01-19T14:55:57;48.67;;;44.67;;
22425;SDS011;11380;50.822;15.790;2023-01-19T15:01:11;49.50;;;45.03;;
22425;SDS011;11380;50.822;15.790;2023-01-19T15:06:19;50.60;;;45.98;;
22425;SDS011;11380;50.822;15.790;2023-01-19T15:11:30;49.73;;;45.60;;
22425;SDS011;11380;50.822;15.790;2023-01-19T15:16:39;49.47;;;45.10;;
22425;SDS011;11380;50.822;15.790;2023-01-19T15:21:48;50.33;;;45.63;;
22425;SDS011;11380;50.822;15.790;2023-01-19T15:26:55;50.07;;;45.60;;
22425;SDS011;11380;50.822;15.790;2023-01-19T15:32:10;51.27;;;46.43;;
22425;SDS011;11380;50.822;15.790;2023-01-19T15:37:19;51.60;;;46.75;;
22425;SDS011;11380;50.822;15.790;2023-01-19T15:42:30;55.07;;;49.67;;
22425;SDS011;11380;50.822;15.790;2023-01-19T15:47:39;53.50;;;48.27;;
22425;SDS011;11380;50.822;15.790;2023-01-19T15:52:46;51.10;;;46.30;;
22425;SDS011;11380;50.822;15.790;2023-01-19T15:57:55;49.67;;;45.30;;
22425;SDS011;11380;50.822;15.790;2023-01-19T16:03:05;46.13;;;42.70;;
22425;SDS011;11380;50.822;15.790;2023-01-19T16:08:15;44.97;;;41.73;;
22425;SDS011;11380;50.822;15.790;2023-01-19T16:13:24;45.12;;;41.75;;
22425;SDS011;11380;50.822;15.790;2023-01-19T16:18:35;45.57;;;41.87;;
22425;SDS011;11380;50.822;15.790;2023-01-19T16:23:43;46.83;;;42.90;;
22425;SDS011;11380;50.822;15.790;2023-01-19T16:28:58;45.93;;;42.30;;
22425;SDS011;11380;50.822;15.790;2023-01-19T16:34:04;45.83;;;42.00;;
22425;SDS011;11380;50.822;15.790;2023-01-19T16:39:12;45.43;;;42.07;;
22425;SDS011;11380;50.822;15.790;2023-01-19T16:44:21;48.38;;;44.35;;
22425;SDS011;11380;50.822;15.790;2023-01-19T16:49:28;45.75;;;42.15;;
22425;SDS011;11380;50.822;15.790;2023-01-19T16:54:36;44.77;;;41.43;;
22425;SDS011;11380;50.822;15.790;2023-01-19T16:59:48;44.07;;;41.00;;
22425;SDS011;11380;50.822;15.790;2023-01-19T17:04:56;46.53;;;42.63;;
22425;SDS011;11380;50.822;15.790;2023-01-19T17:10:04;49.20;;;44.77;;
22425;SDS011;11380;50.822;15.790;2023-01-19T17:15:12;47.40;;;43.23;;
22425;SDS011;11380;50.822;15.790;2023-01-19T17:20:20;43.92;;;40.52;;
22425;SDS011;11380;50.822;15.790;2023-01-19T17:25:28;47.20;;;42.57;;
22425;SDS011;11380;50.822;15.790;2023-01-19T17:30:35;48.77;;;44.37;;
22425;SDS011;11380;50.822;15.790;2023-01-19T17:35:45;48.17;;;43.87;;
22425;SDS011;11380;50.822;15.790;2023-01-19T17:41:14;49.10;;;44.60;;
22425;SDS011;11380;50.822;15.790;2023-01-19T17:46:24;44.33;;;41.00;;
22425;SDS011;11380;50.822;15.790;2023-01-19T17:51:35;46.10;;;41.90;;
22425;SDS011;11380;50.822;15.790;2023-01-19T17:56:43;43.30;;;40.03;;
22425;SDS011;11380;50.822;15.790;2023-01-19T18:01:52;48.53;;;43.37;;
22425;SDS011;11380;50.822;15.790;2023-01-19T18:06:59;50.43;;;45.70;;
22425;SDS011;11380;50.822;15.790;2023-01-19T18:12:12;47.43;;;43.23;;
22425;SDS011;11380;50.822;15.790;2023-01-19T18:17:24;50.03;;;45.40;;
22425;SDS011;11380;50.822;15.790;2023-01-19T18:22:34;48.37;;;43.80;;
22425;SDS011;11380;50.822;15.790;2023-01-19T18:27:45;48.83;;;44.43;;
22425;SDS011;11380;50.822;15.790;2023-01-19T18:33:01;51.87;;;46.57;;
22425;SDS011;11380;50.822;15.790;2023-01-19T18:38:13;64.70;;;51.20;;
22425;SDS011;11380;50.822;15.790;2023-01-19T18:43:21;45.08;;;41.18;;
22425;SDS011;11380;50.822;15.790;2023-01-19T18:48:35;87.90;;;57.27;;
22425;SDS011;11380;50.822;15.790;2023-01-19T18:53:43;69.57;;;51.97;;
22425;SDS011;11380;50.822;15.790;2023-01-19T18:58:54;62.97;;;52.27;;
22425;SDS011;11380;50.822;15.790;2023-01-19T19:04:52;54.93;;;48.23;;
22425;SDS011;11380;50.822;15.790;2023-01-19T19:10:01;51.37;;;46.13;;
22425;SDS011;11380;50.822;15.790;2023-01-19T19:15:12;51.17;;;45.87;;
22425;SDS011;11380;50.822;15.790;2023-01-19T19:20:53;51.33;;;45.87;;
22425;SDS011;11380;50.822;15.790;2023-01-19T19:26:06;62.90;;;49.60;;
22425;SDS011;11380;50.822;15.790;2023-01-19T19:31:20;58.48;;;49.27;;
22425;SDS011;11380;50.822;15.790;2023-01-19T19:36:29;56.83;;;50.63;;
22425;SDS011;11380;50.822;15.790;2023-01-19T19:41:38;96.23;;;60.43;;
22425;SDS011;11380;50.822;15.790;2023-01-19T19:46:46;92.63;;;64.90;;
22425;SDS011;11380;50.822;15.790;2023-01-19T19:51:54;95.37;;;63.10;;
22425;SDS011;11380;50.822;15.790;2023-01-19T19:57:01;83.90;;;58.60;;
22425;SDS011;11380;50.822;15.790;2023-01-19T20:02:08;83.20;;;58.47;;
22425;SDS011;11380;50.822;15.790;2023-01-19T20:07:17;124.13;;;70.23;;
22425;SDS011;11380;50.822;15.790;2023-01-19T20:12:30;93.03;;;65.37;;
22425;SDS011;11380;50.822;15.790;2023-01-19T20:17:38;72.20;;;53.73;;
22425;SDS011;11380;50.822;15.790;2023-01-19T20:22:48;56.77;;;48.28;;
22425;SDS011;11380;50.822;15.790;2023-01-19T20:27:58;60.93;;;47.97;;
22425;SDS011;11380;50.822;15.790;2023-01-19T20:33:11;59.58;;;53.16;;
22425;SDS011;11380;50.822;15.790;2023-01-19T20:38:20;47.00;;;42.73;;
22425;SDS011;11380;50.822;15.790;2023-01-19T20:43:28;55.05;;;49.00;;
22425;SDS011;11380;50.822;15.790;2023-01-19T20:48:37;48.40;;;44.05;;
22425;SDS011;11380;50.822;15.790;2023-01-19T20:53:46;50.80;;;45.87;;
22425;SDS011;11380;50.822;15.790;2023-01-19T20:58:56;49.90;;;45.60;;
22425;SDS011;11380;50.822;15.790;2023-01-19T21:04:05;56.30;;;47.63;;
22425;SDS011;11380;50.822;15.790;2023-01-19T21:09:13;59.63;;;49.90;;
22425;SDS011;11380;50.822;15.790;2023-01-19T21:14:23;65.67;;;49.70;;
22425;SDS011;11380;50.822;15.790;2023-01-19T21:19:35;52.57;;;45.80;;
22425;SDS011;11380;50.822;15.790;2023-01-19T21:24:43;50.07;;;45.10;;
22425;SDS011;11380;50.822;15.790;2023-01-19T21:29:52;49.80;;;44.63;;
22425;SDS011;11380;50.822;15.790;2023-01-19T21:35:01;52.88;;;45.95;;
22425;SDS011;11380;50.822;15.790;2023-01-19T21:40:12;52.60;;;46.80;;
22425;SDS011;11380;50.822;15.790;2023-01-19T21:45:20;48.73;;;44.20;;
22425;SDS011;11380;50.822;15.790;2023-01-19T21:50:29;48.40;;;43.40;;
22425;SDS011;11380;50.822;15.790;2023-01-19T21:55:41;48.30;;;43.37;;
22425;SDS011;11380;50.822;15.790;2023-01-19T22:00:50;52.30;;;46.90;;
22425;SDS011;11380;50.822;15.790;2023-01-19T22:06:06;50.17;;;45.05;;
22425;SDS011;11380;50.822;15.790;2023-01-19T22:11:18;52.27;;;45.37;;
22425;SDS011;11380;50.822;15.790;2023-01-19T22:16:27;52.90;;;47.53;;
22425;SDS011;11380;50.822;15.790;2023-01-19T22:21:34;51.97;;;46.63;;
22425;SDS011;11380;50.822;15.790;2023-01-19T22:26:41;53.13;;;47.70;;
22425;SDS011;11380;50.822;15.790;2023-01-19T22:31:49;50.50;;;45.20;;
22425;SDS011;11380;50.822;15.790;2023-01-19T22:36:59;48.90;;;44.60;;
22425;SDS011;11380;50.822;15.790;2023-01-19T22:42:07;47.97;;;43.53;;
22425;SDS011;11380;50.822;15.790;2023-01-19T22:47:15;48.93;;;44.07;;
22425;SDS011;11380;50.822;15.790;2023-01-19T22:52:22;47.38;;;43.00;;
22425;SDS011;11380;50.822;15.790;2023-01-19T22:57:33;48.60;;;44.08;;
22425;SDS011;11380;50.822;15.790;2023-01-19T23:02:40;48.67;;;44.37;;
22425;SDS011;11380;50.822;15.790;2023-01-19T23:07:50;47.97;;;42.53;;
22425;SDS011;11380;50.822;15.790;2023-01-19T23:12:59;46.50;;;42.07;;
22425;SDS011;11380;50.822;15.790;2023-01-19T23:18:07;46.70;;;42.20;;
22425;SDS011;11380;50.822;15.790;2023-01-19T23:23:15;43.68;;;39.92;;
22425;SDS011;11380;50.822;15.790;2023-01-19T23:28:23;43.53;;;39.63;;
22425;SDS011;11380;50.822;15.790;2023-01-19T23:33:32;45.33;;;40.43;;
22425;SDS011;11380;50.822;15.790;2023-01-19T23:38:46;45.53;;;41.30;;
22425;SDS011;11380;50.822;15.790;2023-01-19T23:44:03;42.03;;;37.90;;
22425;SDS011;11380;50.822;15.790;2023-01-19T23:49:11;43.23;;;39.47;;
22425;SDS011;11380;50.822;15.790;2023-01-19T23:54:19;38.17;;;35.25;;
22425;SDS011;11380;50.822;15.790;2023-01-19T23:59:29;39.33;;;35.63;;
